createdAt,value
2019-02-12T00:02:17.539Z,4.85
2019-02-12T00:04:46.484Z,3.87
2019-02-12T00:07:15.414Z,2.35
2019-02-12T00:09:44.350Z,3.45
2019-02-12T00:12:13.288Z,2.67
2019-02-12T00:14:42.264Z,2.83
2019-02-12T00:17:11.190Z,1.90
2019-02-12T00:19:40.467Z,3.42
2019-02-12T00:22:09.426Z,2.60
2019-02-12T00:24:38.396Z,1.77
2019-02-12T00:27:07.394Z,3.98
2019-02-12T00:29:36.266Z,2.98
2019-02-12T00:32:05.202Z,3.62
2019-02-12T00:34:34.067Z,1.82
2019-02-12T00:37:03.005Z,2.95
2019-02-12T00:39:31.961Z,3.20
2019-02-12T00:42:00.952Z,2.47
2019-02-12T00:44:29.935Z,1.85
2019-02-12T00:46:58.869Z,3.62
2019-02-12T00:49:27.826Z,2.72
2019-02-12T00:51:56.772Z,2.35
2019-02-12T00:54:25.704Z,3.65
2019-02-12T00:56:54.646Z,1.85
2019-02-12T00:59:23.633Z,2.75
2019-02-12T01:01:52.631Z,2.60
2019-02-12T01:04:21.564Z,3.30
2019-02-12T01:06:50.540Z,4.37
2019-02-12T01:09:19.471Z,2.92
2019-02-12T01:11:48.445Z,2.72
2019-02-12T01:14:17.362Z,3.58
2019-02-12T01:16:46.346Z,2.95
2019-02-12T01:19:15.196Z,2.85
2019-02-12T01:21:44.169Z,4.28
2019-02-12T01:24:13.111Z,2.52
2019-02-12T01:26:42.056Z,2.52
2019-02-12T01:29:10.984Z,1.80
2019-02-12T01:31:39.945Z,1.87
2019-02-12T01:34:08.798Z,1.95
2019-02-12T01:36:37.761Z,1.40
2019-02-12T01:39:27.372Z,2.15
2019-02-12T01:41:56.334Z,4.55
2019-02-12T01:44:27.676Z,2.20
2019-02-12T01:46:55.958Z,3.10
2019-02-12T01:49:24.893Z,3.02
2019-02-12T01:51:53.867Z,1.80
2019-02-12T01:54:22.807Z,2.95
2019-02-12T01:56:51.675Z,1.85
2019-02-12T01:59:20.625Z,2.17
2019-02-12T02:01:49.491Z,2.10
2019-02-12T02:04:18.455Z,2.70
2019-02-12T02:06:47.390Z,3.95
2019-02-12T02:09:16.289Z,2.12
2019-02-12T02:11:45.216Z,2.35
2019-02-12T02:14:14.189Z,5.20
2019-02-12T02:16:43.141Z,2.33
2019-02-12T02:19:12.132Z,3.33
2019-02-12T02:21:44.103Z,2.87
2019-02-12T02:24:11.658Z,2.33
2019-02-12T02:26:40.624Z,3.15
2019-02-12T02:29:09.577Z,4.12
2019-02-12T02:31:38.512Z,2.17
2019-02-12T02:34:07.457Z,2.10
2019-02-12T02:36:36.385Z,3.75
2019-02-12T02:39:06.058Z,4.30
2019-02-12T02:41:34.999Z,4.33
2019-02-12T02:44:03.958Z,2.00
2019-02-12T02:46:32.895Z,2.08
2019-02-12T02:49:01.894Z,2.87
2019-02-12T02:51:30.819Z,3.05
2019-02-12T02:53:59.759Z,3.80
2019-02-12T02:56:28.682Z,3.55
2019-02-12T02:58:57.594Z,2.85
2019-02-12T03:01:26.529Z,2.67
2019-02-12T03:03:55.473Z,2.47
2019-02-12T03:06:24.325Z,2.77
2019-02-12T03:08:53.264Z,3.08
2019-02-12T03:11:22.127Z,4.87
2019-02-12T03:13:51.077Z,3.42
2019-02-12T03:16:20.039Z,2.15
2019-02-12T03:18:48.970Z,1.55
2019-02-12T03:21:17.899Z,2.35
2019-02-12T03:23:47.178Z,4.20
2019-02-12T03:26:16.105Z,2.08
2019-02-12T03:28:45.040Z,4.90
2019-02-12T03:31:13.984Z,2.67
2019-02-12T03:33:42.908Z,4.83
2019-02-12T03:36:11.846Z,2.35
2019-02-12T03:38:40.784Z,2.55
2019-02-12T03:41:09.706Z,3.02
2019-02-12T03:43:38.661Z,3.75
2019-02-12T03:46:07.597Z,2.15
2019-02-12T03:48:36.533Z,3.47
2019-02-12T03:51:05.457Z,1.55
2019-02-12T03:53:34.529Z,3.55
2019-02-12T03:56:03.446Z,2.50
2019-02-12T03:58:32.403Z,2.92
2019-02-12T04:01:01.977Z,1.87
2019-02-12T04:03:31.261Z,2.27
2019-02-12T04:06:00.215Z,1.87
2019-02-12T04:08:29.210Z,2.65
2019-02-12T04:10:58.074Z,2.37
2019-02-12T04:13:27.004Z,2.00
2019-02-12T04:15:55.945Z,3.17
2019-02-12T04:18:24.895Z,3.42
2019-02-12T04:20:53.754Z,2.40
2019-02-12T04:23:26.225Z,2.45
2019-02-12T04:25:55.085Z,4.15
2019-02-12T04:28:24.022Z,3.12
2019-02-12T04:30:52.932Z,1.55
2019-02-12T04:33:21.854Z,2.30
2019-02-12T04:35:50.805Z,3.33
2019-02-12T04:38:19.732Z,2.22
2019-02-12T04:40:48.615Z,1.60
2019-02-12T04:43:17.553Z,3.77
2019-02-12T04:45:46.507Z,2.85
2019-02-12T04:48:15.447Z,2.42
2019-02-12T04:50:44.435Z,4.03
2019-02-12T04:53:13.369Z,3.20
2019-02-12T04:55:42.289Z,2.17
2019-02-12T04:58:11.314Z,1.98
2019-02-12T05:00:40.239Z,1.30
2019-02-12T05:03:09.200Z,2.20
2019-02-12T05:05:38.123Z,2.85
2019-02-12T05:08:07.083Z,2.52
2019-02-12T05:10:38.703Z,1.90
2019-02-12T05:13:07.527Z,2.10
2019-02-12T05:15:36.471Z,1.90
2019-02-12T05:18:05.341Z,2.50
2019-02-12T05:20:34.265Z,2.35
2019-02-12T05:23:03.197Z,2.35
2019-02-12T05:25:32.173Z,2.00
2019-02-12T05:28:01.102Z,2.15
2019-02-12T05:30:30.021Z,4.00
2019-02-12T05:32:58.935Z,2.27
2019-02-12T05:35:27.858Z,2.40
2019-02-12T05:37:56.813Z,4.20
2019-02-12T05:40:25.686Z,1.72
2019-02-12T05:42:54.547Z,2.20
2019-02-12T05:45:23.489Z,2.77
2019-02-12T05:47:52.482Z,3.35
2019-02-12T05:50:21.326Z,1.35
2019-02-12T05:52:54.258Z,2.67
2019-02-12T05:55:20.965Z,1.82
2019-02-12T05:57:49.811Z,1.77
2019-02-12T06:00:19.830Z,2.77
2019-02-12T06:02:48.669Z,1.95
2019-02-12T06:05:27.729Z,2.62
2019-02-12T06:07:56.695Z,2.27
2019-02-12T06:10:25.648Z,3.33
2019-02-12T06:12:54.646Z,2.17
2019-02-12T06:15:23.569Z,4.22
2019-02-12T06:17:52.499Z,3.35
2019-02-12T06:20:21.446Z,1.90
2019-02-12T06:22:50.359Z,1.05
2019-02-12T06:25:19.320Z,2.17
2019-02-12T06:27:48.251Z,1.75
2019-02-12T06:30:17.185Z,2.55
2019-02-12T06:32:46.122Z,1.37
2019-02-12T06:35:15.036Z,1.57
2019-02-12T06:37:44.021Z,1.52
2019-02-12T06:40:12.941Z,2.40
2019-02-12T06:42:41.873Z,3.33
2019-02-12T06:45:10.750Z,2.27
2019-02-12T06:47:39.792Z,3.30
2019-02-12T06:50:09.670Z,1.10
2019-02-12T06:52:38.551Z,2.33
2019-02-12T06:55:08.281Z,4.87
2019-02-12T06:57:37.268Z,3.12
2019-02-12T07:00:06.879Z,2.87
2019-02-12T07:03:15.963Z,1.12
2019-02-12T07:05:48.990Z,1.80
2019-02-12T07:12:07.630Z,3.72
2019-02-12T07:15:21.829Z,3.47
2019-02-12T07:18:29.127Z,4.60
2019-02-12T07:21:34.999Z,3.67
2019-02-12T07:24:37.881Z,3.85
2019-02-12T07:27:48.223Z,3.67
2019-02-12T07:30:57.300Z,4.70
2019-02-12T07:33:54.424Z,6.70
2019-02-12T07:37:00.991Z,10.18
2019-02-12T07:40:35.140Z,8.83
2019-02-12T07:43:36.717Z,8.83
2019-02-12T07:46:47.331Z,7.17
2019-02-12T07:50:15.427Z,9.40
2019-02-12T07:53:30.906Z,6.60
2019-02-12T07:56:27.228Z,10.18
2019-02-12T07:59:35.842Z,9.28
2019-02-12T08:02:25.625Z,7.45
2019-02-12T08:05:50.780Z,16.35
2019-02-12T08:09:16.325Z,24.52
2019-02-12T08:12:16.158Z,21.07
2019-02-12T08:15:10.031Z,15.38
2019-02-12T08:18:17.079Z,20.20
2019-02-12T08:21:11.321Z,18.67
2019-02-12T08:24:24.766Z,15.50
2019-02-12T08:27:18.980Z,12.00
2019-02-12T08:30:19.603Z,10.50
2019-02-12T08:33:31.145Z,11.28
2019-02-12T08:36:23.591Z,12.20
2019-02-12T08:39:16.387Z,15.45
2019-02-12T08:42:16.583Z,11.55
2019-02-12T08:45:20.492Z,8.05
2019-02-12T08:48:27.364Z,8.10
2019-02-12T08:51:25.116Z,11.85
2019-02-12T08:54:30.801Z,7.97
2019-02-12T08:57:40.926Z,7.72
2019-02-12T09:00:50.507Z,8.23
2019-02-12T09:04:02.701Z,8.35
2019-02-12T09:07:20.527Z,4.65
2019-02-12T09:10:25.151Z,7.80
2019-02-12T09:13:09.400Z,7.35
2019-02-12T09:16:14.288Z,6.58
2019-02-12T09:18:56.232Z,7.17
2019-02-12T09:22:00.398Z,7.60
2019-02-12T09:25:05.281Z,8.48
2019-02-12T09:27:51.171Z,8.08
2019-02-12T09:31:03.819Z,7.80
2019-02-12T09:34:14.227Z,4.45
2019-02-12T09:37:16.719Z,5.10
2019-02-12T09:40:19.451Z,3.77
2019-02-12T09:43:39.057Z,8.87
2019-02-12T09:46:46.458Z,9.08
2019-02-12T09:50:03.990Z,5.42
2019-02-12T09:53:23.489Z,10.55
2019-02-12T09:56:13.779Z,9.95
2019-02-12T09:58:54.777Z,8.35
2019-02-12T10:01:52.850Z,6.60
2019-02-12T10:04:43.035Z,9.03
2019-02-12T10:07:36.049Z,9.15
2019-02-12T10:10:34.451Z,7.40
2019-02-12T10:13:44.908Z,9.35
2019-02-12T10:16:36.040Z,6.62
2019-02-12T10:19:47.220Z,10.45
2019-02-12T10:22:59.886Z,12.20
2019-02-12T10:25:45.310Z,9.20
2019-02-12T10:28:59.168Z,10.80
2019-02-12T10:31:42.603Z,18.85
2019-02-12T10:34:11.925Z,8.43
2019-02-12T10:36:40.941Z,10.53
2019-02-12T10:39:11.550Z,10.23
2019-02-12T10:41:40.468Z,9.10
2019-02-12T10:44:09.463Z,7.90
2019-02-12T10:46:38.425Z,7.10
2019-02-12T10:49:07.379Z,8.10
2019-02-12T10:51:36.317Z,7.70
2019-02-12T10:54:05.269Z,6.05
2019-02-12T10:56:34.253Z,8.30
2019-02-12T10:59:03.190Z,8.40
2019-02-12T11:01:32.136Z,6.40
2019-02-12T11:04:01.110Z,5.40
2019-02-12T11:06:30.059Z,7.47
2019-02-12T11:08:58.919Z,4.67
2019-02-12T11:11:27.882Z,4.65
2019-02-12T11:13:56.838Z,7.17
2019-02-12T11:16:25.802Z,3.95
2019-02-12T11:18:54.767Z,4.97
2019-02-12T11:21:23.732Z,8.95
2019-02-12T11:23:52.692Z,8.60
2019-02-12T11:26:21.646Z,7.42
2019-02-12T11:28:50.568Z,7.00
2019-02-12T11:31:19.552Z,6.97
2019-02-12T11:33:48.477Z,9.08
2019-02-12T11:36:17.420Z,5.33
2019-02-12T11:38:46.388Z,6.35
2019-02-12T11:41:15.325Z,7.00
2019-02-12T11:43:44.251Z,7.85
2019-02-12T11:46:13.195Z,7.80
2019-02-12T11:48:42.135Z,5.22
2019-02-12T11:51:11.063Z,6.47
2019-02-12T11:53:40.179Z,3.70
2019-02-12T11:56:09.123Z,5.15
2019-02-12T11:58:38.077Z,6.10
2019-02-12T12:01:10.168Z,5.03
2019-02-12T12:03:39.110Z,5.53
2019-02-12T12:06:08.059Z,7.30
2019-02-12T12:08:37.018Z,7.87
2019-02-12T12:11:06.017Z,5.42
2019-02-12T12:13:34.961Z,5.78
2019-02-12T12:16:03.921Z,7.83
2019-02-12T12:18:33.048Z,7.12
2019-02-12T12:21:01.990Z,5.83
2019-02-12T12:23:30.943Z,6.33
2019-02-12T12:25:59.987Z,6.37
2019-02-12T12:28:28.963Z,7.80
2019-02-12T12:30:58.146Z,5.37
2019-02-12T12:33:27.102Z,4.42
2019-02-12T12:35:56.039Z,5.65
2019-02-12T12:38:25.005Z,5.72
2019-02-12T12:40:54.001Z,8.00
2019-02-12T12:43:22.988Z,11.43
2019-02-12T12:45:51.960Z,12.25
2019-02-12T12:48:20.861Z,6.55
2019-02-12T12:50:49.833Z,6.87
2019-02-12T12:53:18.779Z,5.17
2019-02-12T12:55:47.735Z,5.53
2019-02-12T12:58:16.697Z,3.77
2019-02-12T13:00:45.658Z,7.05
2019-02-12T13:03:14.624Z,6.90
2019-02-12T13:05:43.663Z,5.60
2019-02-12T13:08:12.606Z,2.80
2019-02-12T13:10:41.549Z,4.80
2019-02-12T13:13:10.548Z,4.22
2019-02-12T13:15:39.505Z,3.87
2019-02-12T13:18:08.497Z,4.72
2019-02-12T13:20:37.498Z,5.97
2019-02-12T13:23:06.470Z,4.03
2019-02-12T13:25:35.452Z,3.90
2019-02-12T13:28:04.456Z,4.12
2019-02-12T13:30:33.406Z,4.53
2019-02-12T13:33:02.447Z,6.85
2019-02-12T13:35:31.447Z,3.70
2019-02-12T13:38:00.375Z,3.90
2019-02-12T13:40:29.338Z,4.67
2019-02-12T13:42:58.306Z,4.17
2019-02-12T13:45:27.255Z,6.75
2019-02-12T13:47:56.188Z,3.92
2019-02-12T13:50:25.163Z,2.87
2019-02-12T13:52:54.030Z,2.60
2019-02-12T13:55:22.996Z,4.17
2019-02-12T13:57:51.940Z,4.55
2019-02-12T14:00:20.924Z,3.05
2019-02-12T14:02:49.899Z,4.90
2019-02-12T14:05:18.936Z,4.70
2019-02-12T14:07:47.931Z,4.85
2019-02-12T14:10:16.854Z,3.27
2019-02-12T14:12:45.753Z,3.25
2019-02-12T14:15:14.759Z,4.10
2019-02-12T14:17:43.775Z,5.42
2019-02-12T14:20:13.612Z,3.55
2019-02-12T14:22:42.565Z,5.40
2019-02-12T14:25:11.826Z,5.28
2019-02-12T14:27:40.768Z,4.75
2019-02-12T14:30:11.927Z,5.10
2019-02-12T14:32:40.917Z,6.47
2019-02-12T14:35:10.474Z,5.85
2019-02-12T14:37:39.450Z,6.12
2019-02-12T14:40:09.707Z,5.45
2019-02-12T14:42:38.699Z,4.42
2019-02-12T14:45:09.351Z,5.78
2019-02-12T14:47:38.342Z,6.03
2019-02-12T14:50:08.511Z,5.70
2019-02-12T14:52:37.464Z,4.20
2019-02-12T14:55:06.436Z,4.22
2019-02-12T14:57:35.458Z,4.20
2019-02-12T15:00:04.478Z,4.58
2019-02-12T15:02:33.468Z,3.87
2019-02-12T15:05:02.441Z,3.33
2019-02-12T15:07:31.400Z,3.85
2019-02-12T15:10:00.391Z,4.05
2019-02-12T15:12:29.336Z,2.75
2019-02-12T15:14:58.322Z,5.60
2019-02-12T15:17:27.374Z,8.95
2019-02-12T15:19:56.308Z,9.93
2019-02-12T15:22:25.336Z,8.20
2019-02-12T15:24:54.402Z,13.03
2019-02-12T15:27:23.371Z,11.97
2019-02-12T15:29:52.409Z,10.32
2019-02-12T15:32:21.318Z,12.18
2019-02-12T15:34:50.319Z,10.23
2019-02-12T15:37:19.440Z,7.58
2019-02-12T15:39:48.484Z,7.90
2019-02-12T15:42:17.495Z,6.00
2019-02-12T15:44:46.461Z,8.18
2019-02-12T15:47:15.495Z,7.10
2019-02-12T15:49:44.452Z,5.42
2019-02-12T15:52:13.443Z,9.03
2019-02-12T15:54:42.621Z,7.72
2019-02-12T15:57:11.657Z,12.58
2019-02-12T15:59:40.670Z,8.00
2019-02-12T16:02:11.594Z,11.97
2019-02-12T16:04:40.554Z,8.90
2019-02-12T16:07:09.650Z,6.90
2019-02-12T16:09:38.664Z,7.37
2019-02-12T16:12:07.631Z,7.03
2019-02-12T16:14:36.650Z,5.55
2019-02-12T16:17:05.672Z,8.10
2019-02-12T16:19:34.636Z,7.85
2019-02-12T16:22:03.654Z,6.28
2019-02-12T16:24:32.651Z,9.75
2019-02-12T16:27:01.645Z,9.65
2019-02-12T16:29:30.701Z,7.22
2019-02-12T16:31:59.641Z,8.85
2019-02-12T16:34:28.746Z,9.48
2019-02-12T16:36:57.751Z,8.35
2019-02-12T16:39:26.818Z,7.60
2019-02-12T16:41:55.792Z,5.87
2019-02-12T16:44:24.905Z,7.50
2019-02-12T16:46:54.041Z,4.42
2019-02-12T16:49:23.033Z,5.95
2019-02-12T16:51:52.059Z,9.15
2019-02-12T16:54:21.517Z,5.78
2019-02-12T16:56:50.701Z,5.47
2019-02-12T16:59:20.077Z,7.00
2019-02-12T17:01:49.439Z,7.15
2019-02-12T17:04:18.818Z,4.65
2019-02-12T17:06:48.061Z,9.85
2019-02-12T17:09:17.812Z,6.45
2019-02-12T17:11:46.905Z,4.60
2019-02-12T17:14:15.907Z,4.47
2019-02-12T17:16:44.966Z,5.78
2019-02-12T17:19:14.237Z,4.55
2019-02-12T17:21:43.297Z,5.50
2019-02-12T17:24:12.420Z,6.10
2019-02-12T17:26:41.518Z,4.22
2019-02-12T17:29:10.526Z,4.55
2019-02-12T17:31:39.783Z,4.83
2019-02-12T17:34:08.813Z,5.97
2019-02-12T17:36:39.151Z,6.78
2019-02-12T17:39:08.253Z,6.12
2019-02-12T17:41:37.556Z,4.75
2019-02-12T17:44:07.189Z,5.53
2019-02-12T17:46:36.356Z,3.72
2019-02-12T17:49:05.370Z,7.87
2019-02-12T17:51:34.480Z,6.22
2019-02-12T17:54:04.516Z,4.22
2019-02-12T17:56:33.687Z,5.50
2019-02-12T17:59:03.049Z,5.50
2019-02-12T18:01:32.422Z,5.70
2019-02-12T18:04:01.835Z,5.33
2019-02-12T18:06:31.167Z,3.90
2019-02-12T18:09:00.791Z,6.78
2019-02-12T18:11:29.875Z,4.03
2019-02-12T18:13:59.937Z,6.25
2019-02-12T18:16:29.060Z,8.35
2019-02-12T18:18:58.443Z,6.60
2019-02-12T18:21:27.652Z,2.30
2019-02-12T18:23:57.011Z,5.85
2019-02-12T18:26:33.100Z,5.50
2019-02-12T18:28:59.784Z,3.33
2019-02-12T18:31:29.043Z,4.55
2019-02-12T18:33:58.522Z,4.28
2019-02-12T18:36:28.125Z,3.35
2019-02-12T18:38:57.797Z,4.60
2019-02-12T18:41:27.385Z,5.90
2019-02-12T18:44:00.380Z,5.20
2019-02-12T18:48:59.899Z,4.40
2019-02-12T18:51:31.436Z,5.12
2019-02-12T18:54:00.998Z,3.80
2019-02-12T18:56:30.841Z,5.47
2019-02-12T18:59:00.386Z,4.50
2019-02-12T19:01:29.809Z,4.20
2019-02-12T19:04:00.557Z,6.05
2019-02-12T19:06:31.717Z,6.30
2019-02-12T19:09:01.113Z,7.80
2019-02-12T19:11:31.521Z,6.15
2019-02-12T19:14:01.379Z,30.92
2019-02-12T19:16:31.361Z,28.85
2019-02-12T19:19:01.203Z,29.65
2019-02-12T19:21:31.798Z,27.40
2019-02-12T19:24:01.198Z,30.82
2019-02-12T19:26:30.589Z,20.10
2019-02-12T19:28:59.836Z,16.67
2019-02-12T19:31:29.224Z,17.02
2019-02-12T19:33:59.017Z,16.73
2019-02-12T19:36:28.985Z,22.00
2019-02-12T19:38:59.286Z,16.60
2019-02-12T19:41:29.951Z,15.83
2019-02-12T19:43:59.335Z,18.23
2019-02-12T19:46:28.859Z,15.43
2019-02-12T19:48:58.710Z,12.95
2019-02-12T19:51:27.910Z,13.75
2019-02-12T19:53:57.898Z,13.83
2019-02-12T19:56:27.095Z,14.85
2019-02-12T19:58:56.983Z,13.43
2019-02-12T20:01:26.527Z,14.15
2019-02-12T20:03:55.868Z,16.60
2019-02-12T20:06:25.889Z,12.25
2019-02-12T20:08:55.293Z,13.45
2019-02-12T20:11:25.007Z,11.25
2019-02-12T20:13:54.319Z,14.93
2019-02-12T20:16:23.466Z,12.15
2019-02-12T20:18:53.294Z,13.45
2019-02-12T20:21:23.218Z,11.65
2019-02-12T20:23:53.196Z,12.50
2019-02-12T20:26:23.043Z,13.43
2019-02-12T20:28:55.818Z,12.58
2019-02-12T20:31:26.000Z,11.38
2019-02-12T20:33:57.040Z,10.13
2019-02-12T20:36:26.689Z,10.78
2019-02-12T20:38:57.388Z,14.00
2019-02-12T20:41:26.826Z,7.50
2019-02-12T20:43:56.526Z,8.65
2019-02-12T20:46:25.647Z,7.50
2019-02-12T20:48:55.236Z,11.25
2019-02-12T20:51:24.417Z,6.58
2019-02-12T20:53:53.913Z,10.53
2019-02-12T20:56:23.124Z,7.35
2019-02-12T20:58:52.360Z,9.48
2019-02-12T21:01:22.154Z,9.85
2019-02-12T21:03:51.953Z,7.35
2019-02-12T21:06:21.230Z,9.48
2019-02-12T21:08:50.279Z,7.00
2019-02-12T21:11:19.629Z,6.90
2019-02-12T21:13:48.718Z,9.30
2019-02-12T21:16:17.964Z,9.00
2019-02-12T21:18:47.245Z,6.78
2019-02-12T21:21:16.232Z,6.72
2019-02-12T21:23:45.322Z,7.10
2019-02-12T21:26:14.294Z,6.67
2019-02-12T21:28:43.249Z,7.67
2019-02-12T21:31:13.152Z,9.00
2019-02-12T21:33:42.540Z,7.75
2019-02-12T21:36:11.547Z,7.17
2019-02-12T21:38:40.549Z,7.78
2019-02-12T21:41:11.347Z,5.03
2019-02-12T21:43:40.589Z,4.80
2019-02-12T21:46:09.898Z,9.08
2019-02-12T21:48:38.890Z,6.15
2019-02-12T21:51:07.883Z,5.08
2019-02-12T21:53:37.062Z,6.03
2019-02-12T21:56:06.129Z,5.53
2019-02-12T21:58:36.720Z,5.08
2019-02-12T22:01:05.686Z,6.50
2019-02-12T22:03:34.646Z,5.97
2019-02-12T22:06:03.660Z,6.70
2019-02-12T22:08:32.653Z,4.60
2019-02-12T22:11:01.699Z,7.35
2019-02-12T22:13:30.669Z,5.40
2019-02-12T22:15:59.636Z,3.98
2019-02-12T22:18:28.589Z,5.87
2019-02-12T22:20:57.519Z,6.42
2019-02-12T22:23:26.504Z,5.37
2019-02-12T22:25:55.590Z,4.10
2019-02-12T22:28:24.576Z,5.65
2019-02-12T22:30:53.522Z,7.08
2019-02-12T22:33:22.495Z,4.50
2019-02-12T22:35:51.357Z,5.28
2019-02-12T22:38:20.342Z,6.33
2019-02-12T22:40:49.330Z,4.80
2019-02-12T22:43:18.291Z,4.37
2019-02-12T22:45:47.283Z,5.33
2019-02-12T22:48:16.257Z,5.25
2019-02-12T22:50:45.231Z,6.08
2019-02-12T22:53:14.182Z,6.83
2019-02-12T22:55:43.150Z,6.10
2019-02-12T22:58:12.131Z,4.97
2019-02-12T23:00:58.623Z,4.53
2019-02-12T23:03:27.598Z,5.90
2019-02-12T23:05:56.537Z,4.20
2019-02-12T23:08:25.531Z,7.37
2019-02-12T23:10:54.471Z,6.22
2019-02-12T23:13:23.441Z,3.85
2019-02-12T23:15:52.435Z,4.92
2019-02-12T23:18:21.349Z,4.45
2019-02-12T23:20:50.237Z,4.47
2019-02-12T23:23:19.184Z,5.87
2019-02-12T23:25:48.171Z,4.67
2019-02-12T23:28:17.182Z,4.60
2019-02-12T23:30:46.116Z,4.53
2019-02-12T23:33:15.062Z,4.80
2019-02-12T23:35:44.016Z,5.03
2019-02-12T23:38:13.018Z,4.92
2019-02-12T23:40:41.910Z,5.87
2019-02-12T23:43:10.915Z,5.37
2019-02-12T23:45:39.699Z,4.72
2019-02-12T23:48:08.658Z,7.17
2019-02-12T23:50:37.607Z,4.42
2019-02-12T23:53:06.589Z,6.03
2019-02-12T23:55:35.586Z,4.65
2019-02-12T23:58:06.275Z,5.85
